sensor_id;sensor_type;location;lat;lon;timestamp;P1;durP1;ratioP1;P2;durP2;ratioP2
3779;SDS011;1905;52.482;9.802;2022-11-11T00:00:30;5.73;;;1.40;;
3779;SDS011;1905;52.482;9.802;2022-11-11T00:03:17;2.50;;;1.70;;
3779;SDS011;1905;52.482;9.802;2022-11-11T00:06:09;2.30;;;1.43;;
3779;SDS011;1905;52.482;9.802;2022-11-11T00:08:57;3.43;;;1.70;;
3779;SDS011;1905;52.482;9.802;2022-11-11T00:11:43;4.93;;;1.83;;
3779;SDS011;1905;52.482;9.802;2022-11-11T00:14:29;2.33;;;1.70;;
3779;SDS011;1905;52.482;9.802;2022-11-11T00:17:16;3.73;;;1.70;;
3779;SDS011;1905;52.482;9.802;2022-11-11T00:20:21;1.60;;;1.50;;
3779;SDS011;1905;52.482;9.802;2022-11-11T00:23:29;1.90;;;1.37;;
3779;SDS011;1905;52.482;9.802;2022-11-11T00:26:32;1.40;;;1.30;;
3779;SDS011;1905;52.482;9.802;2022-11-11T00:29:24;2.50;;;1.43;;
3779;SDS011;1905;52.482;9.802;2022-11-11T00:32:10;3.53;;;2.10;;
3779;SDS011;1905;52.482;9.802;2022-11-11T00:35:10;2.10;;;1.70;;
3779;SDS011;1905;52.482;9.802;2022-11-11T00:38:15;3.23;;;1.70;;
3779;SDS011;1905;52.482;9.802;2022-11-11T00:41:16;3.33;;;1.90;;
3779;SDS011;1905;52.482;9.802;2022-11-11T00:44:04;1.50;;;1.40;;
3779;SDS011;1905;52.482;9.802;2022-11-11T00:46:50;2.03;;;1.83;;
3779;SDS011;1905;52.482;9.802;2022-11-11T00:49:54;2.37;;;1.90;;
3779;SDS011;1905;52.482;9.802;2022-11-11T00:52:58;3.00;;;2.20;;
3779;SDS011;1905;52.482;9.802;2022-11-11T00:55:46;3.43;;;1.57;;
3779;SDS011;1905;52.482;9.802;2022-11-11T00:58:32;2.10;;;2.00;;
3779;SDS011;1905;52.482;9.802;2022-11-11T01:01:18;3.17;;;1.70;;
3779;SDS011;1905;52.482;9.802;2022-11-11T01:04:05;2.50;;;2.17;;
3779;SDS011;1905;52.482;9.802;2022-11-11T01:06:51;4.67;;;1.70;;
3779;SDS011;1905;52.482;9.802;2022-11-11T01:09:38;3.23;;;2.20;;
3779;SDS011;1905;52.482;9.802;2022-11-11T01:12:25;2.50;;;1.80;;
3779;SDS011;1905;52.482;9.802;2022-11-11T01:15:12;5.30;;;2.10;;
3779;SDS011;1905;52.482;9.802;2022-11-11T01:17:58;3.97;;;1.73;;
3779;SDS011;1905;52.482;9.802;2022-11-11T01:20:45;3.00;;;1.53;;
3779;SDS011;1905;52.482;9.802;2022-11-11T01:23:37;1.90;;;1.70;;
3779;SDS011;1905;52.482;9.802;2022-11-11T01:26:25;1.83;;;1.60;;
3779;SDS011;1905;52.482;9.802;2022-11-11T01:29:16;3.47;;;2.00;;
3779;SDS011;1905;52.482;9.802;2022-11-11T01:32:03;2.23;;;1.70;;
3779;SDS011;1905;52.482;9.802;2022-11-11T01:34:49;6.40;;;1.87;;
3779;SDS011;1905;52.482;9.802;2022-11-11T01:37:35;3.70;;;1.50;;
3779;SDS011;1905;52.482;9.802;2022-11-11T01:40:21;2.90;;;1.57;;
3779;SDS011;1905;52.482;9.802;2022-11-11T01:43:15;2.03;;;1.40;;
3779;SDS011;1905;52.482;9.802;2022-11-11T01:46:08;2.90;;;1.47;;
3779;SDS011;1905;52.482;9.802;2022-11-11T01:49:17;1.80;;;1.70;;
3779;SDS011;1905;52.482;9.802;2022-11-11T01:52:10;2.90;;;1.80;;
3779;SDS011;1905;52.482;9.802;2022-11-11T01:55:00;4.00;;;2.07;;
3779;SDS011;1905;52.482;9.802;2022-11-11T01:57:50;4.27;;;2.40;;
3779;SDS011;1905;52.482;9.802;2022-11-11T02:00:38;1.90;;;1.80;;
3779;SDS011;1905;52.482;9.802;2022-11-11T02:03:26;2.77;;;1.80;;
3779;SDS011;1905;52.482;9.802;2022-11-11T02:06:16;6.00;;;1.87;;
3779;SDS011;1905;52.482;9.802;2022-11-11T02:09:02;2.80;;;1.70;;
3779;SDS011;1905;52.482;9.802;2022-11-11T02:11:50;3.20;;;1.93;;
3779;SDS011;1905;52.482;9.802;2022-11-11T02:14:56;5.70;;;2.33;;
3779;SDS011;1905;52.482;9.802;2022-11-11T02:17:44;3.03;;;1.90;;
3779;SDS011;1905;52.482;9.802;2022-11-11T02:20:35;4.63;;;1.83;;
3779;SDS011;1905;52.482;9.802;2022-11-11T02:23:24;1.97;;;1.77;;
3779;SDS011;1905;52.482;9.802;2022-11-11T02:26:16;4.30;;;2.57;;
3779;SDS011;1905;52.482;9.802;2022-11-11T02:29:06;4.70;;;1.60;;
3779;SDS011;1905;52.482;9.802;2022-11-11T02:31:56;1.97;;;1.50;;
3779;SDS011;1905;52.482;9.802;2022-11-11T02:34:43;2.60;;;1.53;;
3779;SDS011;1905;52.482;9.802;2022-11-11T02:37:29;2.30;;;1.30;;
3779;SDS011;1905;52.482;9.802;2022-11-11T02:40:16;3.20;;;1.57;;
3779;SDS011;1905;52.482;9.802;2022-11-11T02:43:06;1.60;;;1.50;;
3779;SDS011;1905;52.482;9.802;2022-11-11T02:45:53;2.20;;;2.00;;
3779;SDS011;1905;52.482;9.802;2022-11-11T02:48:39;2.77;;;2.33;;
3779;SDS011;1905;52.482;9.802;2022-11-11T02:51:26;2.30;;;1.57;;
3779;SDS011;1905;52.482;9.802;2022-11-11T02:54:12;3.60;;;3.20;;
3779;SDS011;1905;52.482;9.802;2022-11-11T02:56:58;1.70;;;1.60;;
3779;SDS011;1905;52.482;9.802;2022-11-11T02:59:55;3.00;;;1.60;;
3779;SDS011;1905;52.482;9.802;2022-11-11T03:02:43;1.70;;;1.60;;
3779;SDS011;1905;52.482;9.802;2022-11-11T03:05:30;2.10;;;1.90;;
3779;SDS011;1905;52.482;9.802;2022-11-11T03:08:17;1.53;;;1.43;;
3779;SDS011;1905;52.482;9.802;2022-11-11T03:11:03;2.70;;;2.27;;
3779;SDS011;1905;52.482;9.802;2022-11-11T03:13:49;1.50;;;1.40;;
3779;SDS011;1905;52.482;9.802;2022-11-11T03:16:37;2.00;;;1.40;;
3779;SDS011;1905;52.482;9.802;2022-11-11T03:19:41;4.00;;;2.20;;
3779;SDS011;1905;52.482;9.802;2022-11-11T03:22:27;2.40;;;1.40;;
3779;SDS011;1905;52.482;9.802;2022-11-11T03:25:33;1.30;;;1.20;;
3779;SDS011;1905;52.482;9.802;2022-11-11T03:28:25;4.03;;;1.47;;
3779;SDS011;1905;52.482;9.802;2022-11-11T03:31:11;3.50;;;2.03;;
3779;SDS011;1905;52.482;9.802;2022-11-11T03:33:59;2.70;;;1.40;;
3779;SDS011;1905;52.482;9.802;2022-11-11T03:37:02;1.60;;;1.50;;
3779;SDS011;1905;52.482;9.802;2022-11-11T03:40:07;5.03;;;2.67;;
3779;SDS011;1905;52.482;9.802;2022-11-11T03:42:54;1.77;;;1.67;;
3779;SDS011;1905;52.482;9.802;2022-11-11T03:45:48;2.90;;;1.60;;
3779;SDS011;1905;52.482;9.802;2022-11-11T03:48:35;7.47;;;2.13;;
3779;SDS011;1905;52.482;9.802;2022-11-11T03:51:23;3.00;;;1.10;;
3779;SDS011;1905;52.482;9.802;2022-11-11T03:54:09;3.30;;;1.30;;
3779;SDS011;1905;52.482;9.802;2022-11-11T03:56:55;3.33;;;1.60;;
3779;SDS011;1905;52.482;9.802;2022-11-11T04:00:02;2.33;;;1.60;;
3779;SDS011;1905;52.482;9.802;2022-11-11T04:03:02;3.07;;;1.90;;
3779;SDS011;1905;52.482;9.802;2022-11-11T04:06:08;4.63;;;1.80;;
3779;SDS011;1905;52.482;9.802;2022-11-11T04:09:22;1.90;;;1.80;;
3779;SDS011;1905;52.482;9.802;2022-11-11T04:12:26;7.27;;;2.00;;
3779;SDS011;1905;52.482;9.802;2022-11-11T04:15:14;3.60;;;1.77;;
3779;SDS011;1905;52.482;9.802;2022-11-11T04:18:18;2.50;;;1.53;;
3779;SDS011;1905;52.482;9.802;2022-11-11T04:21:25;2.50;;;1.70;;
3779;SDS011;1905;52.482;9.802;2022-11-11T04:24:30;2.10;;;1.60;;
3779;SDS011;1905;52.482;9.802;2022-11-11T04:27:35;2.30;;;1.37;;
3779;SDS011;1905;52.482;9.802;2022-11-11T04:30:21;5.10;;;1.70;;
3779;SDS011;1905;52.482;9.802;2022-11-11T04:33:06;2.00;;;1.40;;
3779;SDS011;1905;52.482;9.802;2022-11-11T04:35:53;1.80;;;1.63;;
3779;SDS011;1905;52.482;9.802;2022-11-11T04:38:40;2.70;;;2.10;;
3779;SDS011;1905;52.482;9.802;2022-11-11T04:41:45;3.17;;;1.83;;
3779;SDS011;1905;52.482;9.802;2022-11-11T04:44:51;3.87;;;1.60;;
3779;SDS011;1905;52.482;9.802;2022-11-11T04:47:56;1.50;;;1.40;;
3779;SDS011;1905;52.482;9.802;2022-11-11T04:50:43;1.90;;;1.70;;
3779;SDS011;1905;52.482;9.802;2022-11-11T04:53:29;1.83;;;1.50;;
3779;SDS011;1905;52.482;9.802;2022-11-11T04:56:16;1.90;;;1.43;;
3779;SDS011;1905;52.482;9.802;2022-11-11T04:59:21;3.23;;;3.03;;
3779;SDS011;1905;52.482;9.802;2022-11-11T05:02:07;3.50;;;1.77;;
3779;SDS011;1905;52.482;9.802;2022-11-11T05:05:19;2.50;;;1.63;;
3779;SDS011;1905;52.482;9.802;2022-11-11T05:08:06;2.53;;;2.20;;
3779;SDS011;1905;52.482;9.802;2022-11-11T05:11:11;4.73;;;1.70;;
3779;SDS011;1905;52.482;9.802;2022-11-11T05:13:58;4.93;;;1.60;;
3779;SDS011;1905;52.482;9.802;2022-11-11T05:17:04;2.67;;;1.60;;
3779;SDS011;1905;52.482;9.802;2022-11-11T05:20:08;1.93;;;1.60;;
3779;SDS011;1905;52.482;9.802;2022-11-11T05:23:12;5.87;;;1.87;;
3779;SDS011;1905;52.482;9.802;2022-11-11T05:25:58;2.40;;;1.83;;
3779;SDS011;1905;52.482;9.802;2022-11-11T05:28:44;3.73;;;1.80;;
3779;SDS011;1905;52.482;9.802;2022-11-11T05:31:31;1.73;;;1.63;;
3779;SDS011;1905;52.482;9.802;2022-11-11T05:34:18;4.20;;;1.80;;
3779;SDS011;1905;52.482;9.802;2022-11-11T05:37:05;1.90;;;1.70;;
3779;SDS011;1905;52.482;9.802;2022-11-11T05:39:51;1.40;;;1.30;;
3779;SDS011;1905;52.482;9.802;2022-11-11T05:42:40;2.10;;;1.87;;
3779;SDS011;1905;52.482;9.802;2022-11-11T05:45:34;1.80;;;1.70;;
3779;SDS011;1905;52.482;9.802;2022-11-11T05:48:20;3.50;;;2.10;;
3779;SDS011;1905;52.482;9.802;2022-11-11T05:51:07;1.57;;;1.40;;
3779;SDS011;1905;52.482;9.802;2022-11-11T05:54:12;1.80;;;1.57;;
3779;SDS011;1905;52.482;9.802;2022-11-11T05:56:59;3.43;;;2.13;;
3779;SDS011;1905;52.482;9.802;2022-11-11T05:59:45;4.83;;;2.17;;
3779;SDS011;1905;52.482;9.802;2022-11-11T06:02:32;4.80;;;1.80;;
3779;SDS011;1905;52.482;9.802;2022-11-11T06:05:18;3.53;;;2.17;;
3779;SDS011;1905;52.482;9.802;2022-11-11T06:08:06;3.27;;;2.57;;
3779;SDS011;1905;52.482;9.802;2022-11-11T06:10:52;3.60;;;2.00;;
3779;SDS011;1905;52.482;9.802;2022-11-11T06:13:38;6.80;;;2.80;;
3779;SDS011;1905;52.482;9.802;2022-11-11T06:16:25;3.63;;;2.67;;
3779;SDS011;1905;52.482;9.802;2022-11-11T06:19:11;4.37;;;1.77;;
3779;SDS011;1905;52.482;9.802;2022-11-11T06:21:57;3.93;;;1.97;;
3779;SDS011;1905;52.482;9.802;2022-11-11T06:24:46;4.20;;;3.33;;
3779;SDS011;1905;52.482;9.802;2022-11-11T06:27:52;6.20;;;2.13;;
3779;SDS011;1905;52.482;9.802;2022-11-11T06:30:39;2.63;;;1.93;;
3779;SDS011;1905;52.482;9.802;2022-11-11T06:33:40;3.20;;;2.03;;
3779;SDS011;1905;52.482;9.802;2022-11-11T06:36:27;3.17;;;2.50;;
3779;SDS011;1905;52.482;9.802;2022-11-11T06:39:14;2.47;;;1.80;;
3779;SDS011;1905;52.482;9.802;2022-11-11T06:42:01;3.43;;;2.20;;
3779;SDS011;1905;52.482;9.802;2022-11-11T06:44:47;4.03;;;2.30;;
3779;SDS011;1905;52.482;9.802;2022-11-11T06:47:34;2.10;;;2.00;;
3779;SDS011;1905;52.482;9.802;2022-11-11T06:50:20;2.57;;;1.73;;
3779;SDS011;1905;52.482;9.802;2022-11-11T06:53:08;3.43;;;2.60;;
3779;SDS011;1905;52.482;9.802;2022-11-11T06:55:55;3.37;;;2.43;;
3779;SDS011;1905;52.482;9.802;2022-11-11T06:58:43;5.70;;;1.70;;
3779;SDS011;1905;52.482;9.802;2022-11-11T07:01:30;2.23;;;2.03;;
3779;SDS011;1905;52.482;9.802;2022-11-11T07:04:16;6.67;;;2.00;;
3779;SDS011;1905;52.482;9.802;2022-11-11T07:07:03;5.30;;;2.30;;
3779;SDS011;1905;52.482;9.802;2022-11-11T07:09:49;3.97;;;2.23;;
3779;SDS011;1905;52.482;9.802;2022-11-11T07:12:36;2.13;;;1.47;;
3779;SDS011;1905;52.482;9.802;2022-11-11T07:15:26;6.33;;;2.23;;
3779;SDS011;1905;52.482;9.802;2022-11-11T07:18:13;6.30;;;2.30;;
3779;SDS011;1905;52.482;9.802;2022-11-11T07:20:59;2.80;;;2.00;;
3779;SDS011;1905;52.482;9.802;2022-11-11T07:23:45;3.80;;;1.93;;
3779;SDS011;1905;52.482;9.802;2022-11-11T07:26:32;1.73;;;1.63;;
3779;SDS011;1905;52.482;9.802;2022-11-11T07:29:18;3.50;;;2.17;;
3779;SDS011;1905;52.482;9.802;2022-11-11T07:32:06;4.87;;;1.80;;
3779;SDS011;1905;52.482;9.802;2022-11-11T07:34:52;3.67;;;2.30;;
3779;SDS011;1905;52.482;9.802;2022-11-11T07:37:38;2.00;;;1.90;;
3779;SDS011;1905;52.482;9.802;2022-11-11T07:40:25;3.23;;;1.97;;
3779;SDS011;1905;52.482;9.802;2022-11-11T07:43:11;2.40;;;2.20;;
3779;SDS011;1905;52.482;9.802;2022-11-11T07:45:58;3.93;;;2.60;;
3779;SDS011;1905;52.482;9.802;2022-11-11T07:48:46;2.53;;;2.03;;
3779;SDS011;1905;52.482;9.802;2022-11-11T07:51:32;3.10;;;2.20;;
3779;SDS011;1905;52.482;9.802;2022-11-11T07:54:19;2.87;;;2.13;;
3779;SDS011;1905;52.482;9.802;2022-11-11T07:57:06;7.33;;;3.10;;
3779;SDS011;1905;52.482;9.802;2022-11-11T07:59:52;2.43;;;2.23;;
3779;SDS011;1905;52.482;9.802;2022-11-11T08:02:38;3.70;;;2.77;;
3779;SDS011;1905;52.482;9.802;2022-11-11T08:05:26;2.70;;;2.50;;
3779;SDS011;1905;52.482;9.802;2022-11-11T08:08:12;2.60;;;2.30;;
3779;SDS011;1905;52.482;9.802;2022-11-11T08:10:58;3.83;;;2.37;;
3779;SDS011;1905;52.482;9.802;2022-11-11T08:13:45;2.63;;;2.43;;
3779;SDS011;1905;52.482;9.802;2022-11-11T08:16:30;6.20;;;3.40;;
3779;SDS011;1905;52.482;9.802;2022-11-11T08:19:16;6.90;;;2.13;;
3779;SDS011;1905;52.482;9.802;2022-11-11T08:22:04;6.97;;;2.43;;
3779;SDS011;1905;52.482;9.802;2022-11-11T08:24:50;3.80;;;2.40;;
3779;SDS011;1905;52.482;9.802;2022-11-11T08:27:55;3.13;;;2.33;;
3779;SDS011;1905;52.482;9.802;2022-11-11T08:30:42;4.13;;;3.13;;
3779;SDS011;1905;52.482;9.802;2022-11-11T08:33:28;6.80;;;2.60;;
3779;SDS011;1905;52.482;9.802;2022-11-11T08:36:18;4.00;;;2.70;;
3779;SDS011;1905;52.482;9.802;2022-11-11T08:39:06;9.07;;;2.90;;
3779;SDS011;1905;52.482;9.802;2022-11-11T08:41:52;3.20;;;2.60;;
3779;SDS011;1905;52.482;9.802;2022-11-11T08:44:39;6.40;;;2.33;;
3779;SDS011;1905;52.482;9.802;2022-11-11T08:47:25;3.33;;;3.07;;
3779;SDS011;1905;52.482;9.802;2022-11-11T08:50:11;7.73;;;5.27;;
3779;SDS011;1905;52.482;9.802;2022-11-11T08:52:58;4.83;;;2.40;;
3779;SDS011;1905;52.482;9.802;2022-11-11T08:55:45;7.90;;;3.17;;
3779;SDS011;1905;52.482;9.802;2022-11-11T08:58:32;7.03;;;2.80;;
3779;SDS011;1905;52.482;9.802;2022-11-11T09:01:18;3.03;;;2.07;;
3779;SDS011;1905;52.482;9.802;2022-11-11T09:04:04;3.27;;;2.10;;
3779;SDS011;1905;52.482;9.802;2022-11-11T09:07:11;5.43;;;2.40;;
3779;SDS011;1905;52.482;9.802;2022-11-11T09:09:57;2.67;;;2.47;;
3779;SDS011;1905;52.482;9.802;2022-11-11T09:12:45;4.80;;;2.53;;
3779;SDS011;1905;52.482;9.802;2022-11-11T09:15:31;4.83;;;3.10;;
3779;SDS011;1905;52.482;9.802;2022-11-11T09:18:18;3.87;;;2.70;;
3779;SDS011;1905;52.482;9.802;2022-11-11T09:21:05;5.40;;;2.20;;
3779;SDS011;1905;52.482;9.802;2022-11-11T09:23:52;3.83;;;2.57;;
3779;SDS011;1905;52.482;9.802;2022-11-11T09:26:38;2.30;;;1.97;;
3779;SDS011;1905;52.482;9.802;2022-11-11T09:29:26;3.73;;;2.17;;
3779;SDS011;1905;52.482;9.802;2022-11-11T09:32:12;5.93;;;3.40;;
3779;SDS011;1905;52.482;9.802;2022-11-11T09:34:58;4.43;;;1.70;;
3779;SDS011;1905;52.482;9.802;2022-11-11T09:37:53;2.10;;;1.90;;
3779;SDS011;1905;52.482;9.802;2022-11-11T09:40:45;1.80;;;1.70;;
3779;SDS011;1905;52.482;9.802;2022-11-11T09:43:42;5.73;;;1.90;;
3779;SDS011;1905;52.482;9.802;2022-11-11T09:46:38;9.20;;;1.63;;
3779;SDS011;1905;52.482;9.802;2022-11-11T09:49:41;1.73;;;1.47;;
3779;SDS011;1905;52.482;9.802;2022-11-11T09:52:37;2.40;;;1.70;;
3779;SDS011;1905;52.482;9.802;2022-11-11T09:55:29;2.75;;;1.50;;
3779;SDS011;1905;52.482;9.802;2022-11-11T09:58:21;2.00;;;1.33;;
3779;SDS011;1905;52.482;9.802;2022-11-11T10:01:11;1.80;;;1.60;;
3779;SDS011;1905;52.482;9.802;2022-11-11T10:04:04;2.07;;;1.80;;
3779;SDS011;1905;52.482;9.802;2022-11-11T10:06:59;5.77;;;1.87;;
3779;SDS011;1905;52.482;9.802;2022-11-11T10:09:51;1.40;;;1.30;;
3779;SDS011;1905;52.482;9.802;2022-11-11T10:12:41;1.50;;;1.40;;
3779;SDS011;1905;52.482;9.802;2022-11-11T10:15:35;6.03;;;1.90;;
3779;SDS011;1905;52.482;9.802;2022-11-11T10:18:46;2.40;;;1.40;;
3779;SDS011;1905;52.482;9.802;2022-11-11T10:21:49;2.30;;;1.60;;
3779;SDS011;1905;52.482;9.802;2022-11-11T10:24:59;4.30;;;1.70;;
3779;SDS011;1905;52.482;9.802;2022-11-11T10:27:53;2.40;;;1.80;;
3779;SDS011;1905;52.482;9.802;2022-11-11T10:30:43;3.90;;;1.60;;
3779;SDS011;1905;52.482;9.802;2022-11-11T10:33:34;1.90;;;1.80;;
3779;SDS011;1905;52.482;9.802;2022-11-11T10:36:29;2.00;;;1.80;;
3779;SDS011;1905;52.482;9.802;2022-11-11T10:39:23;2.40;;;1.70;;
3779;SDS011;1905;52.482;9.802;2022-11-11T10:42:15;2.73;;;1.47;;
3779;SDS011;1905;52.482;9.802;2022-11-11T10:45:03;4.97;;;1.67;;
3779;SDS011;1905;52.482;9.802;2022-11-11T10:47:57;1.17;;;1.07;;
3779;SDS011;1905;52.482;9.802;2022-11-11T10:50:48;3.50;;;1.80;;
3779;SDS011;1905;52.482;9.802;2022-11-11T10:53:38;2.50;;;1.60;;
3779;SDS011;1905;52.482;9.802;2022-11-11T10:56:32;1.63;;;1.53;;
3779;SDS011;1905;52.482;9.802;2022-11-11T10:59:23;2.37;;;1.80;;
3779;SDS011;1905;52.482;9.802;2022-11-11T11:02:16;4.33;;;1.20;;
3779;SDS011;1905;52.482;9.802;2022-11-11T11:05:07;3.17;;;1.80;;
3779;SDS011;1905;52.482;9.802;2022-11-11T11:07:59;3.77;;;1.53;;
3779;SDS011;1905;52.482;9.802;2022-11-11T11:10:52;2.93;;;1.43;;
3779;SDS011;1905;52.482;9.802;2022-11-11T11:13:44;1.30;;;1.17;;
3779;SDS011;1905;52.482;9.802;2022-11-11T11:16:34;5.03;;;1.60;;
3779;SDS011;1905;52.482;9.802;2022-11-11T11:19:28;2.23;;;1.20;;
3779;SDS011;1905;52.482;9.802;2022-11-11T11:22:15;1.60;;;1.40;;
3779;SDS011;1905;52.482;9.802;2022-11-11T11:25:07;1.63;;;1.10;;
3779;SDS011;1905;52.482;9.802;2022-11-11T11:28:03;4.20;;;2.30;;
3779;SDS011;1905;52.482;9.802;2022-11-11T11:30:58;1.73;;;1.37;;
3779;SDS011;1905;52.482;9.802;2022-11-11T11:33:50;2.23;;;1.27;;
3779;SDS011;1905;52.482;9.802;2022-11-11T11:36:38;3.53;;;1.23;;
3779;SDS011;1905;52.482;9.802;2022-11-11T11:39:31;4.83;;;1.20;;
3779;SDS011;1905;52.482;9.802;2022-11-11T11:42:28;1.43;;;1.33;;
3779;SDS011;1905;52.482;9.802;2022-11-11T11:45:20;6.23;;;1.50;;
3779;SDS011;1905;52.482;9.802;2022-11-11T11:48:13;3.47;;;1.10;;
3779;SDS011;1905;52.482;9.802;2022-11-11T11:51:19;2.40;;;1.60;;
3779;SDS011;1905;52.482;9.802;2022-11-11T11:54:12;4.37;;;1.10;;
3779;SDS011;1905;52.482;9.802;2022-11-11T11:57:13;1.30;;;1.20;;
3779;SDS011;1905;52.482;9.802;2022-11-11T12:00:12;2.43;;;1.27;;
3779;SDS011;1905;52.482;9.802;2022-11-11T12:03:07;1.67;;;1.20;;
3779;SDS011;1905;52.482;9.802;2022-11-11T12:06:11;1.30;;;1.20;;
3779;SDS011;1905;52.482;9.802;2022-11-11T12:09:05;1.63;;;1.50;;
3779;SDS011;1905;52.482;9.802;2022-11-11T12:11:58;1.20;;;1.10;;
3779;SDS011;1905;52.482;9.802;2022-11-11T12:15:03;1.03;;;0.97;;
3779;SDS011;1905;52.482;9.802;2022-11-11T12:18:08;1.70;;;1.10;;
3779;SDS011;1905;52.482;9.802;2022-11-11T12:21:07;2.03;;;1.43;;
3779;SDS011;1905;52.482;9.802;2022-11-11T12:24:00;3.00;;;1.23;;
3779;SDS011;1905;52.482;9.802;2022-11-11T12:26:53;1.10;;;1.00;;
3779;SDS011;1905;52.482;9.802;2022-11-11T12:29:54;1.70;;;1.20;;
3779;SDS011;1905;52.482;9.802;2022-11-11T12:32:53;2.53;;;1.40;;
3779;SDS011;1905;52.482;9.802;2022-11-11T12:35:58;1.70;;;1.60;;
3779;SDS011;1905;52.482;9.802;2022-11-11T12:38:56;1.50;;;1.40;;
3779;SDS011;1905;52.482;9.802;2022-11-11T12:41:47;1.87;;;1.30;;
3779;SDS011;1905;52.482;9.802;2022-11-11T12:44:44;0.90;;;0.80;;
3779;SDS011;1905;52.482;9.802;2022-11-11T12:47:37;4.93;;;1.20;;
3779;SDS011;1905;52.482;9.802;2022-11-11T12:50:35;2.43;;;1.50;;
3779;SDS011;1905;52.482;9.802;2022-11-11T12:53:30;4.30;;;1.10;;
3779;SDS011;1905;52.482;9.802;2022-11-11T12:56:24;1.70;;;1.60;;
3779;SDS011;1905;52.482;9.802;2022-11-11T12:59:18;3.20;;;2.90;;
3779;SDS011;1905;52.482;9.802;2022-11-11T13:02:19;2.20;;;0.90;;
3779;SDS011;1905;52.482;9.802;2022-11-11T13:05:23;1.20;;;1.10;;
3779;SDS011;1905;52.482;9.802;2022-11-11T13:08:19;1.80;;;1.10;;
3779;SDS011;1905;52.482;9.802;2022-11-11T13:11:25;2.03;;;1.30;;
3779;SDS011;1905;52.482;9.802;2022-11-11T13:14:22;2.30;;;1.40;;
3779;SDS011;1905;52.482;9.802;2022-11-11T13:17:25;1.90;;;0.90;;
3779;SDS011;1905;52.482;9.802;2022-11-11T13:20:14;1.27;;;0.90;;
3779;SDS011;1905;52.482;9.802;2022-11-11T13:23:06;0.80;;;0.77;;
3779;SDS011;1905;52.482;9.802;2022-11-11T13:25:56;1.20;;;1.10;;
3779;SDS011;1905;52.482;9.802;2022-11-11T13:28:46;1.60;;;1.10;;
3779;SDS011;1905;52.482;9.802;2022-11-11T13:31:34;1.10;;;1.00;;
3779;SDS011;1905;52.482;9.802;2022-11-11T13:34:23;0.70;;;0.70;;
3779;SDS011;1905;52.482;9.802;2022-11-11T13:37:17;1.40;;;1.30;;
3779;SDS011;1905;52.482;9.802;2022-11-11T13:40:07;3.23;;;1.10;;
3779;SDS011;1905;52.482;9.802;2022-11-11T13:43:11;0.97;;;0.90;;
3779;SDS011;1905;52.482;9.802;2022-11-11T13:46:02;2.03;;;0.80;;
3779;SDS011;1905;52.482;9.802;2022-11-11T13:48:50;4.40;;;1.00;;
3779;SDS011;1905;52.482;9.802;2022-11-11T13:51:37;1.13;;;1.03;;
3779;SDS011;1905;52.482;9.802;2022-11-11T13:54:26;1.33;;;0.90;;
3779;SDS011;1905;52.482;9.802;2022-11-11T13:57:18;2.10;;;1.00;;
3779;SDS011;1905;52.482;9.802;2022-11-11T14:00:23;2.07;;;1.20;;
3779;SDS011;1905;52.482;9.802;2022-11-11T14:09:54;0.80;;;0.80;;
3779;SDS011;1905;52.482;9.802;2022-11-11T14:12:44;0.93;;;0.87;;
3779;SDS011;1905;52.482;9.802;2022-11-11T14:15:37;1.00;;;0.90;;
3779;SDS011;1905;52.482;9.802;2022-11-11T14:18:32;1.20;;;1.10;;
3779;SDS011;1905;52.482;9.802;2022-11-11T14:24:34;5.33;;;1.20;;
3779;SDS011;1905;52.482;9.802;2022-11-11T14:27:23;1.60;;;1.00;;
3779;SDS011;1905;52.482;9.802;2022-11-11T14:30:26;2.83;;;1.10;;
3779;SDS011;1905;52.482;9.802;2022-11-11T14:33:17;1.70;;;1.00;;
3779;SDS011;1905;52.482;9.802;2022-11-11T14:36:15;8.93;;;1.10;;
3779;SDS011;1905;52.482;9.802;2022-11-11T14:39:08;1.03;;;0.90;;
3779;SDS011;1905;52.482;9.802;2022-11-11T14:42:06;1.20;;;1.00;;
3779;SDS011;1905;52.482;9.802;2022-11-11T14:51:53;2.40;;;1.20;;
3779;SDS011;1905;52.482;9.802;2022-11-11T14:54:46;1.53;;;1.30;;
3779;SDS011;1905;52.482;9.802;2022-11-11T14:57:38;1.97;;;1.10;;
3779;SDS011;1905;52.482;9.802;2022-11-11T15:00:27;1.83;;;1.20;;
3779;SDS011;1905;52.482;9.802;2022-11-11T15:03:19;2.60;;;1.53;;
3779;SDS011;1905;52.482;9.802;2022-11-11T15:06:12;2.30;;;2.10;;
3779;SDS011;1905;52.482;9.802;2022-11-11T15:09:06;5.70;;;2.90;;
3779;SDS011;1905;52.482;9.802;2022-11-11T15:12:04;5.73;;;2.33;;
3779;SDS011;1905;52.482;9.802;2022-11-11T15:15:00;3.33;;;2.27;;
3779;SDS011;1905;52.482;9.802;2022-11-11T15:17:58;2.27;;;1.67;;
3779;SDS011;1905;52.482;9.802;2022-11-11T15:20:59;2.83;;;1.50;;
3779;SDS011;1905;52.482;9.802;2022-11-11T15:23:56;2.23;;;1.60;;
3779;SDS011;1905;52.482;9.802;2022-11-11T15:26:50;3.80;;;1.23;;
3779;SDS011;1905;52.482;9.802;2022-11-11T15:29:46;3.70;;;1.70;;
3779;SDS011;1905;52.482;9.802;2022-11-11T15:32:45;2.43;;;1.30;;
3779;SDS011;1905;52.482;9.802;2022-11-11T15:35:44;1.60;;;1.50;;
3779;SDS011;1905;52.482;9.802;2022-11-11T15:38:35;3.13;;;1.87;;
3779;SDS011;1905;52.482;9.802;2022-11-11T15:41:23;6.70;;;2.60;;
3779;SDS011;1905;52.482;9.802;2022-11-11T15:44:19;2.80;;;2.60;;
3779;SDS011;1905;52.482;9.802;2022-11-11T15:47:11;2.97;;;2.30;;
3779;SDS011;1905;52.482;9.802;2022-11-11T15:49:59;2.13;;;1.90;;
3779;SDS011;1905;52.482;9.802;2022-11-11T15:52:45;4.30;;;2.43;;
3779;SDS011;1905;52.482;9.802;2022-11-11T15:55:32;1.40;;;1.30;;
3779;SDS011;1905;52.482;9.802;2022-11-11T15:58:26;2.10;;;1.90;;
3779;SDS011;1905;52.482;9.802;2022-11-11T16:01:13;4.47;;;1.43;;
3779;SDS011;1905;52.482;9.802;2022-11-11T16:04:01;6.90;;;1.60;;
3779;SDS011;1905;52.482;9.802;2022-11-11T16:06:47;1.60;;;1.50;;
3779;SDS011;1905;52.482;9.802;2022-11-11T16:09:34;2.90;;;1.50;;
3779;SDS011;1905;52.482;9.802;2022-11-11T16:12:23;1.50;;;1.40;;
3779;SDS011;1905;52.482;9.802;2022-11-11T16:15:18;1.60;;;1.30;;
3779;SDS011;1905;52.482;9.802;2022-11-11T16:18:11;1.40;;;1.17;;
3779;SDS011;1905;52.482;9.802;2022-11-11T16:21:03;3.93;;;1.60;;
3779;SDS011;1905;52.482;9.802;2022-11-11T16:23:52;1.87;;;1.50;;
3779;SDS011;1905;52.482;9.802;2022-11-11T16:26:40;1.93;;;1.77;;
3779;SDS011;1905;52.482;9.802;2022-11-11T16:29:26;2.50;;;2.30;;
3779;SDS011;1905;52.482;9.802;2022-11-11T16:32:31;5.27;;;2.50;;
3779;SDS011;1905;52.482;9.802;2022-11-11T16:35:22;3.83;;;2.03;;
3779;SDS011;1905;52.482;9.802;2022-11-11T16:38:11;3.87;;;2.73;;
3779;SDS011;1905;52.482;9.802;2022-11-11T16:41:27;2.43;;;1.83;;
3779;SDS011;1905;52.482;9.802;2022-11-11T16:44:27;2.83;;;2.03;;
3779;SDS011;1905;52.482;9.802;2022-11-11T16:50:39;1.80;;;1.63;;
3779;SDS011;1905;52.482;9.802;2022-11-11T16:53:39;1.90;;;1.70;;
3779;SDS011;1905;52.482;9.802;2022-11-11T16:56:28;2.63;;;1.90;;
3779;SDS011;1905;52.482;9.802;2022-11-11T16:59:17;3.53;;;2.73;;
3779;SDS011;1905;52.482;9.802;2022-11-11T17:02:13;2.50;;;2.30;;
3779;SDS011;1905;52.482;9.802;2022-11-11T17:05:02;2.23;;;2.03;;
3779;SDS011;1905;52.482;9.802;2022-11-11T17:07:49;2.67;;;2.47;;
3779;SDS011;1905;52.482;9.802;2022-11-11T17:10:37;2.43;;;2.23;;
3779;SDS011;1905;52.482;9.802;2022-11-11T17:13:24;3.23;;;2.50;;
3779;SDS011;1905;52.482;9.802;2022-11-11T17:16:11;3.57;;;2.60;;
3779;SDS011;1905;52.482;9.802;2022-11-11T17:18:58;4.23;;;2.87;;
3779;SDS011;1905;52.482;9.802;2022-11-11T17:21:46;5.33;;;2.80;;
3779;SDS011;1905;52.482;9.802;2022-11-11T17:24:32;2.97;;;2.70;;
3779;SDS011;1905;52.482;9.802;2022-11-11T17:27:18;8.00;;;3.00;;
3779;SDS011;1905;52.482;9.802;2022-11-11T17:30:05;4.77;;;2.40;;
3779;SDS011;1905;52.482;9.802;2022-11-11T17:32:53;3.13;;;2.93;;
3779;SDS011;1905;52.482;9.802;2022-11-11T17:35:39;3.80;;;3.50;;
3779;SDS011;1905;52.482;9.802;2022-11-11T17:38:36;5.20;;;3.07;;
3779;SDS011;1905;52.482;9.802;2022-11-11T17:41:23;4.60;;;3.13;;
3779;SDS011;1905;52.482;9.802;2022-11-11T17:44:09;3.93;;;3.53;;
3779;SDS011;1905;52.482;9.802;2022-11-11T17:46:55;4.73;;;3.27;;
3779;SDS011;1905;52.482;9.802;2022-11-11T17:49:41;3.80;;;3.40;;
3779;SDS011;1905;52.482;9.802;2022-11-11T17:52:41;4.83;;;4.23;;
3779;SDS011;1905;52.482;9.802;2022-11-11T17:55:29;5.17;;;4.20;;
3779;SDS011;1905;52.482;9.802;2022-11-11T17:58:16;4.83;;;3.57;;
3779;SDS011;1905;52.482;9.802;2022-11-11T18:01:04;4.40;;;3.67;;
3779;SDS011;1905;52.482;9.802;2022-11-11T18:03:53;5.23;;;3.83;;
3779;SDS011;1905;52.482;9.802;2022-11-11T18:06:40;4.00;;;3.47;;